메인 페이지
METAR-TAF:

METAR-TAF

공항 :

Monclova, 멕시코

위도: 26-53N, 경도: 101-25W, 고도: 615m

현재 날씨관측

예보는 1 시간 15분 전, 13:42시(UTC)에 발표되었습니다.
무풍
온도 29°C
습도 55%
기압 1015 hPa
시정: 16.1km
맑음

METAR: MMMV 131342Z 00000KT 10SM SKC 29/19 A2997

시각: 09:57 (14:57 UTC)

예보

예보는 10 시간 20분 전, 04:37시(UTC)에 발표되었습니다.
예보 대상 시간: 13일 06시부터 14일 06시까지 (UTC)
kt
시정: 10km
맑음
13일 1300시부터 (UTC)
북북동7kt
시정: 10km
맑음
13일 1800시부터 (UTC)
북동10kt
시정: 10km
고도 4000ft 상공 구름 보통
전환 중
13일 21시부터 13일 22시까지 (UTC)
동북동15kt
14일 0000시부터 (UTC)
남동5kt
시정: 10km
맑음

TAF: MMMV 130437Z 1306/1406 00000KT P6SM SKC FM131300 02007KT P6SM SKC FM131800 04010KT P6SM SCT040 BECMG 1321/1322 07015KT FM140000 14005KT P6SM SKC

4,000개 이상의 공항 관측 자료 및 예보 (METAR 및 TAF 보고).

지도상에서 검색 가능한 기상관측소가 노란 점과 빨간 점으로 표시되어 있습니다.

기상관측소 명을 보려면 표시 위로 마우스를 이동하세요.

날씨 관측과 예보를 보려면 클릭하세요.

지도 변경 : 확대하려면 엑스 표시가 있는 녹색 버튼, 축소하려면 빼기 표시가 있는 녹색 버튼, 다음 페이지의 지도를 보려면 녹색 화살표를 클릭하세요.


METAR-TAF: